sensor_id;sensor_type;location;lat;lon;timestamp;pressure;altitude;pressure_sealevel;temperature;humidity
27202;BME280;14717;46.924;15.474;2023-04-08T00:02:23;97798.91;;;7.84;61.65
27202;BME280;14717;46.924;15.474;2023-04-08T00:04:48;97799.72;;;7.89;61.55
27202;BME280;14717;46.924;15.474;2023-04-08T00:07:13;97803.81;;;7.87;62.02
27202;BME280;14717;46.924;15.474;2023-04-08T00:09:39;97803.53;;;7.93;61.97
27202;BME280;14717;46.924;15.474;2023-04-08T00:12:04;97802.19;;;7.86;62.50
27202;BME280;14717;46.924;15.474;2023-04-08T00:14:30;97807.44;;;7.67;62.80
27202;BME280;14717;46.924;15.474;2023-04-08T00:16:56;97811.81;;;7.68;62.90
27202;BME280;14717;46.924;15.474;2023-04-08T00:19:21;97793.97;;;7.76;62.59
27202;BME280;14717;46.924;15.474;2023-04-08T00:21:46;97795.84;;;7.80;63.37
27202;BME280;14717;46.924;15.474;2023-04-08T00:24:12;97797.25;;;7.73;63.79
27202;BME280;14717;46.924;15.474;2023-04-08T00:26:38;97794.50;;;7.73;63.57
27202;BME280;14717;46.924;15.474;2023-04-08T00:29:03;97789.81;;;7.78;63.26
27202;BME280;14717;46.924;15.474;2023-04-08T00:31:28;97787.91;;;7.74;62.69
27202;BME280;14717;46.924;15.474;2023-04-08T00:33:54;97785.16;;;7.74;62.61
27202;BME280;14717;46.924;15.474;2023-04-08T00:36:20;97781.56;;;7.73;62.80
27202;BME280;14717;46.924;15.474;2023-04-08T00:38:45;97789.81;;;7.78;63.45
27202;BME280;14717;46.924;15.474;2023-04-08T00:41:11;97779.66;;;7.79;62.75
27202;BME280;14717;46.924;15.474;2023-04-08T00:43:36;97793.97;;;7.71;62.72
27202;BME280;14717;46.924;15.474;2023-04-08T00:46:02;97792.03;;;7.66;64.21
27202;BME280;14717;46.924;15.474;2023-04-08T00:48:28;97790.09;;;7.52;65.04
27202;BME280;14717;46.924;15.474;2023-04-08T00:50:53;97791.75;;;7.58;65.17
27202;BME280;14717;46.924;15.474;2023-04-08T00:53:19;97793.97;;;7.56;65.03
27202;BME280;14717;46.924;15.474;2023-04-08T00:55:44;97796.19;;;7.59;64.62
27202;BME280;14717;46.924;15.474;2023-04-08T00:58:11;97786.25;;;7.63;64.83
27202;BME280;14717;46.924;15.474;2023-04-08T01:00:41;97782.13;;;7.65;64.41
27202;BME280;14717;46.924;15.474;2023-04-08T01:03:15;97792.31;;;7.60;64.89
27202;BME280;14717;46.924;15.474;2023-04-08T01:06:06;97790.09;;;7.57;65.21
27202;BME280;14717;46.924;15.474;2023-04-08T01:08:37;97783.25;;;7.55;65.91
27202;BME280;14717;46.924;15.474;2023-04-08T01:11:05;97785.47;;;7.43;66.29
27202;BME280;14717;46.924;15.474;2023-04-08T01:13:36;97780.78;;;7.23;67.23
27202;BME280;14717;46.924;15.474;2023-04-08T01:16:03;97789.56;;;7.20;67.56
27202;BME280;14717;46.924;15.474;2023-04-08T01:18:29;97774.47;;;7.18;66.98
27202;BME280;14717;46.924;15.474;2023-04-08T01:20:55;97783.50;;;7.19;67.75
27202;BME280;14717;46.924;15.474;2023-04-08T01:23:31;97784.63;;;7.32;67.57
27202;BME280;14717;46.924;15.474;2023-04-08T01:25:57;97780.78;;;7.38;67.14
27202;BME280;14717;46.924;15.474;2023-04-08T01:28:27;97779.97;;;7.38;66.92
27202;BME280;14717;46.924;15.474;2023-04-08T01:30:54;97780.78;;;7.28;67.76
27202;BME280;14717;46.924;15.474;2023-04-08T01:33:21;97778.56;;;7.25;68.22
27202;BME280;14717;46.924;15.474;2023-04-08T01:35:47;97783.50;;;7.19;68.57
27202;BME280;14717;46.924;15.474;2023-04-08T01:38:17;97781.81;;;6.98;68.98
27202;BME280;14717;46.924;15.474;2023-04-08T01:40:45;97784.59;;;7.08;68.26
27202;BME280;14717;46.924;15.474;2023-04-08T01:43:13;97793.94;;;7.02;69.01
27202;BME280;14717;46.924;15.474;2023-04-08T01:45:42;97785.13;;;7.00;69.08
27202;BME280;14717;46.924;15.474;2023-04-08T01:48:08;97788.44;;;7.02;69.81
27202;BME280;14717;46.924;15.474;2023-04-08T01:50:34;97775.81;;;7.11;68.71
27202;BME280;14717;46.924;15.474;2023-04-08T01:53:01;97771.41;;;7.15;68.62
27202;BME280;14717;46.924;15.474;2023-04-08T01:55:28;97765.91;;;7.15;68.50
27202;BME280;14717;46.924;15.474;2023-04-08T01:57:58;97775.28;;;7.14;68.56
27202;BME280;14717;46.924;15.474;2023-04-08T02:00:27;97771.13;;;7.01;69.00
27202;BME280;14717;46.924;15.474;2023-04-08T02:02:53;97774.72;;;6.97;69.44
27202;BME280;14717;46.924;15.474;2023-04-08T02:05:19;97771.41;;;7.05;69.48
27202;BME280;14717;46.924;15.474;2023-04-08T02:07:48;97774.44;;;7.08;69.48
27202;BME280;14717;46.924;15.474;2023-04-08T02:10:15;97784.03;;;6.91;69.56
27202;BME280;14717;46.924;15.474;2023-04-08T02:12:41;97781.00;;;6.82;70.39
27202;BME280;14717;46.924;15.474;2023-04-08T02:15:08;97778.00;;;6.94;70.07
27202;BME280;14717;46.924;15.474;2023-04-08T02:17:45;97781.00;;;6.92;70.12
27202;BME280;14717;46.924;15.474;2023-04-08T02:20:18;97780.47;;;6.90;69.64
27202;BME280;14717;46.924;15.474;2023-04-08T02:23:04;97783.50;;;7.04;69.67
27202;BME280;14717;46.924;15.474;2023-04-08T02:25:34;97781.03;;;7.07;69.82
27202;BME280;14717;46.924;15.474;2023-04-08T02:28:02;97790.06;;;6.98;69.50
27202;BME280;14717;46.924;15.474;2023-04-08T02:30:29;97788.97;;;6.99;70.16
27202;BME280;14717;46.924;15.474;2023-04-08T02:32:55;97788.13;;;6.88;69.92
27202;BME280;14717;46.924;15.474;2023-04-08T02:35:22;97783.47;;;6.84;70.49
27202;BME280;14717;46.924;15.474;2023-04-08T02:37:48;97782.94;;;6.92;69.69
27202;BME280;14717;46.924;15.474;2023-04-08T02:40:27;97790.03;;;6.78;71.23
27202;BME280;14717;46.924;15.474;2023-04-08T02:42:53;97788.94;;;6.74;72.23
27202;BME280;14717;46.924;15.474;2023-04-08T02:45:19;97798.75;;;6.65;72.22
27202;BME280;14717;46.924;15.474;2023-04-08T02:47:44;97796.56;;;6.57;72.90
27202;BME280;14717;46.924;15.474;2023-04-08T02:50:10;97791.63;;;6.64;72.91
27202;BME280;14717;46.924;15.474;2023-04-08T02:52:35;97788.94;;;6.79;72.21
27202;BME280;14717;46.924;15.474;2023-04-08T02:55:01;97785.09;;;6.80;72.10
27202;BME280;14717;46.924;15.474;2023-04-08T02:57:26;97784.28;;;6.89;71.89
27202;BME280;14717;46.924;15.474;2023-04-08T02:59:51;97784.31;;;6.99;71.04
27202;BME280;14717;46.924;15.474;2023-04-08T03:02:17;97792.50;;;6.84;71.01
27202;BME280;14717;46.924;15.474;2023-04-08T03:04:42;97784.03;;;6.96;71.18
27202;BME280;14717;46.924;15.474;2023-04-08T03:07:08;97785.97;;;7.00;70.74
27202;BME280;14717;46.924;15.474;2023-04-08T03:09:33;97779.94;;;7.13;70.44
27202;BME280;14717;46.924;15.474;2023-04-08T03:11:58;97774.16;;;7.19;70.10
27202;BME280;14717;46.924;15.474;2023-04-08T03:14:24;97788.19;;;7.08;70.52
27202;BME280;14717;46.924;15.474;2023-04-08T03:16:49;97785.44;;;7.13;70.81
27202;BME280;14717;46.924;15.474;2023-04-08T03:19:15;97778.81;;;7.09;70.46
27202;BME280;14717;46.924;15.474;2023-04-08T03:21:40;97784.59;;;7.13;69.92
27202;BME280;14717;46.924;15.474;2023-04-08T03:24:06;97781.31;;;7.16;69.73
27202;BME280;14717;46.924;15.474;2023-04-08T03:26:31;97781.84;;;7.18;69.75
27202;BME280;14717;46.924;15.474;2023-04-08T03:28:56;97784.31;;;7.19;69.24
27202;BME280;14717;46.924;15.474;2023-04-08T03:31:22;97773.34;;;7.19;69.30
27202;BME280;14717;46.924;15.474;2023-04-08T03:33:47;97779.66;;;7.19;70.42
27202;BME280;14717;46.924;15.474;2023-04-08T03:36:12;97781.84;;;7.18;70.29
27202;BME280;14717;46.924;15.474;2023-04-08T03:38:38;97778.28;;;7.22;69.39
27202;BME280;14717;46.924;15.474;2023-04-08T03:41:03;97792.03;;;7.12;70.39
27202;BME280;14717;46.924;15.474;2023-04-08T03:43:29;97796.09;;;6.90;71.55
27202;BME280;14717;46.924;15.474;2023-04-08T03:45:55;97801.03;;;6.88;71.04
27202;BME280;14717;46.924;15.474;2023-04-08T03:48:21;97800.47;;;6.81;70.98
27202;BME280;14717;46.924;15.474;2023-04-08T03:50:47;97792.75;;;6.68;72.04
27202;BME280;14717;46.924;15.474;2023-04-08T03:53:12;97796.28;;;6.64;72.58
27202;BME280;14717;46.924;15.474;2023-04-08T03:55:38;97802.09;;;6.67;72.76
27202;BME280;14717;46.924;15.474;2023-04-08T03:58:03;97803.16;;;6.66;72.01
27202;BME280;14717;46.924;15.474;2023-04-08T04:00:29;97809.19;;;6.63;72.89
27202;BME280;14717;46.924;15.474;2023-04-08T04:02:54;97818.81;;;6.61;72.80
27202;BME280;14717;46.924;15.474;2023-04-08T04:05:20;97822.91;;;6.63;72.61
27202;BME280;14717;46.924;15.474;2023-04-08T04:07:46;97824.56;;;6.64;73.41
27202;BME280;14717;46.924;15.474;2023-04-08T04:10:11;97825.09;;;6.61;72.52
27202;BME280;14717;46.924;15.474;2023-04-08T04:12:37;97830.56;;;6.56;72.72
27202;BME280;14717;46.924;15.474;2023-04-08T04:15:02;97830.88;;;6.65;72.79
27202;BME280;14717;46.924;15.474;2023-04-08T04:17:28;97835.31;;;6.71;72.80
27202;BME280;14717;46.924;15.474;2023-04-08T04:19:53;97829.00;;;6.80;73.33
27202;BME280;14717;46.924;15.474;2023-04-08T04:22:19;97833.97;;;6.88;72.76
27202;BME280;14717;46.924;15.474;2023-04-08T04:24:48;97834.00;;;7.03;71.78
27202;BME280;14717;46.924;15.474;2023-04-08T04:27:14;97839.22;;;6.94;71.55
27202;BME280;14717;46.924;15.474;2023-04-08T04:29:42;97843.31;;;6.82;72.64
27202;BME280;14717;46.924;15.474;2023-04-08T04:32:07;97853.72;;;6.85;72.72
27202;BME280;14717;46.924;15.474;2023-04-08T04:34:33;97843.34;;;6.92;72.54
27202;BME280;14717;46.924;15.474;2023-04-08T04:36:58;97852.41;;;6.97;72.62
27202;BME280;14717;46.924;15.474;2023-04-08T04:39:23;97850.22;;;6.99;72.85
27202;BME280;14717;46.924;15.474;2023-04-08T04:41:49;97856.53;;;7.05;73.53
27202;BME280;14717;46.924;15.474;2023-04-08T04:44:14;97855.47;;;7.16;74.63
27202;BME280;14717;46.924;15.474;2023-04-08T04:46:40;97854.38;;;7.12;74.46
27202;BME280;14717;46.924;15.474;2023-04-08T04:49:05;97860.41;;;7.09;75.45
27202;BME280;14717;46.924;15.474;2023-04-08T04:51:31;97859.31;;;7.15;76.11
27202;BME280;14717;46.924;15.474;2023-04-08T04:53:57;97864.22;;;6.98;76.35
27202;BME280;14717;46.924;15.474;2023-04-08T04:56:22;97855.38;;;6.81;77.48
27202;BME280;14717;46.924;15.474;2023-04-08T04:58:48;97866.03;;;6.73;79.76
27202;BME280;14717;46.924;15.474;2023-04-08T05:01:13;97870.72;;;6.72;80.68
27202;BME280;14717;46.924;15.474;2023-04-08T05:03:39;97876.75;;;6.69;80.35
27202;BME280;14717;46.924;15.474;2023-04-08T05:06:04;97870.69;;;6.67;81.16
27202;BME280;14717;46.924;15.474;2023-04-08T05:08:30;97868.78;;;6.68;82.29
27202;BME280;14717;46.924;15.474;2023-04-08T05:10:55;97875.88;;;6.64;82.24
27202;BME280;14717;46.924;15.474;2023-04-08T05:13:21;97884.09;;;6.64;82.37
27202;BME280;14717;46.924;15.474;2023-04-08T05:15:46;97882.44;;;6.53;82.82
27202;BME280;14717;46.924;15.474;2023-04-08T05:18:12;97876.63;;;6.44;85.96
27202;BME280;14717;46.924;15.474;2023-04-08T05:20:37;97879.38;;;6.44;84.77
27202;BME280;14717;46.924;15.474;2023-04-08T05:23:03;97879.06;;;6.41;85.36
27202;BME280;14717;46.924;15.474;2023-04-08T05:25:29;97886.38;;;6.26;85.65
27202;BME280;14717;46.924;15.474;2023-04-08T05:27:54;97890.16;;;6.15;87.42
27202;BME280;14717;46.924;15.474;2023-04-08T05:30:20;97892.31;;;6.13;88.68
27202;BME280;14717;46.924;15.474;2023-04-08T05:32:45;97895.06;;;6.13;89.34
27202;BME280;14717;46.924;15.474;2023-04-08T05:35:11;97897.50;;;6.09;89.36
27202;BME280;14717;46.924;15.474;2023-04-08T05:37:36;97895.88;;;6.08;90.67
27202;BME280;14717;46.924;15.474;2023-04-08T05:40:01;97892.31;;;6.13;90.67
27202;BME280;14717;46.924;15.474;2023-04-08T05:42:27;97899.50;;;6.19;90.89
27202;BME280;14717;46.924;15.474;2023-04-08T05:44:53;97901.13;;;6.15;90.96
27202;BME280;14717;46.924;15.474;2023-04-08T05:47:18;97898.41;;;6.20;92.63
27202;BME280;14717;46.924;15.474;2023-04-08T05:49:43;97905.59;;;6.31;93.80
27202;BME280;14717;46.924;15.474;2023-04-08T05:52:09;97905.06;;;6.34;93.42
27202;BME280;14717;46.924;15.474;2023-04-08T05:54:34;97910.09;;;6.46;93.09
27202;BME280;14717;46.924;15.474;2023-04-08T05:56:59;97912.34;;;6.54;93.28
27202;BME280;14717;46.924;15.474;2023-04-08T05:59:25;97906.25;;;6.42;93.03
27202;BME280;14717;46.924;15.474;2023-04-08T06:01:50;97910.56;;;6.34;91.15
27202;BME280;14717;46.924;15.474;2023-04-08T06:04:16;97909.91;;;6.17;91.33
27202;BME280;14717;46.924;15.474;2023-04-08T06:06:42;97914.19;;;6.03;91.85
27202;BME280;14717;46.924;15.474;2023-04-08T06:09:07;97914.19;;;6.03;93.40
27202;BME280;14717;46.924;15.474;2023-04-08T06:11:34;97912.03;;;6.05;92.57
27202;BME280;14717;46.924;15.474;2023-04-08T06:13:59;97920.53;;;6.08;92.42
27202;BME280;14717;46.924;15.474;2023-04-08T06:16:25;97917.34;;;6.21;93.07
27202;BME280;14717;46.924;15.474;2023-04-08T06:18:50;97917.09;;;6.28;92.58
27202;BME280;14717;46.924;15.474;2023-04-08T06:21:16;97921.41;;;6.14;94.52
27202;BME280;14717;46.924;15.474;2023-04-08T06:23:41;97924.41;;;6.12;96.17
27202;BME280;14717;46.924;15.474;2023-04-08T06:26:07;97927.91;;;6.08;96.60
27202;BME280;14717;46.924;15.474;2023-04-08T06:28:32;97925.13;;;6.03;97.74
27202;BME280;14717;46.924;15.474;2023-04-08T06:30:58;97933.03;;;5.94;97.96
27202;BME280;14717;46.924;15.474;2023-04-08T06:33:23;97936.56;;;5.90;97.94
27202;BME280;14717;46.924;15.474;2023-04-08T06:35:49;97944.16;;;5.83;97.47
27202;BME280;14717;46.924;15.474;2023-04-08T06:38:14;97940.88;;;5.81;98.25
27202;BME280;14717;46.924;15.474;2023-04-08T06:40:40;97943.09;;;5.84;98.87
27202;BME280;14717;46.924;15.474;2023-04-08T06:43:05;97945.91;;;5.94;100.00
27202;BME280;14717;46.924;15.474;2023-04-08T06:45:34;97948.34;;;5.91;99.92
27202;BME280;14717;46.924;15.474;2023-04-08T06:47:59;97951.91;;;5.91;100.00
27202;BME280;14717;46.924;15.474;2023-04-08T06:50:25;97957.97;;;5.93;100.00
27202;BME280;14717;46.924;15.474;2023-04-08T06:52:50;97960.41;;;5.90;100.00
27202;BME280;14717;46.924;15.474;2023-04-08T06:55:16;97959.78;;;5.83;100.00
27202;BME280;14717;46.924;15.474;2023-04-08T06:57:41;97956.84;;;5.89;100.00
27202;BME280;14717;46.924;15.474;2023-04-08T07:00:07;97961.84;;;5.97;100.00
27202;BME280;14717;46.924;15.474;2023-04-08T07:02:33;97964.91;;;6.00;100.00
27202;BME280;14717;46.924;15.474;2023-04-08T07:04:58;97957.13;;;5.93;100.00
27202;BME280;14717;46.924;15.474;2023-04-08T07:07:23;97967.50;;;5.86;100.00
27202;BME280;14717;46.924;15.474;2023-04-08T07:09:50;97969.97;;;5.87;100.00
27202;BME280;14717;46.924;15.474;2023-04-08T07:12:15;97970.50;;;5.84;100.00
27202;BME280;14717;46.924;15.474;2023-04-08T07:14:41;97972.16;;;5.85;100.00
27202;BME280;14717;46.924;15.474;2023-04-08T07:17:06;97974.88;;;5.80;100.00
27202;BME280;14717;46.924;15.474;2023-04-08T07:19:32;97975.13;;;5.79;100.00
27202;BME280;14717;46.924;15.474;2023-04-08T07:21:57;97985.19;;;5.73;100.00
27202;BME280;14717;46.924;15.474;2023-04-08T07:24:23;97987.31;;;5.71;100.00
27202;BME280;14717;46.924;15.474;2023-04-08T07:26:48;97991.25;;;5.75;100.00
27202;BME280;14717;46.924;15.474;2023-04-08T07:29:13;97985.28;;;5.83;100.00
27202;BME280;14717;46.924;15.474;2023-04-08T07:31:41;97991.91;;;5.87;100.00
27202;BME280;14717;46.924;15.474;2023-04-08T07:34:07;97999.03;;;5.88;100.00
27202;BME280;14717;46.924;15.474;2023-04-08T07:36:32;97995.13;;;5.79;100.00
27202;BME280;14717;46.924;15.474;2023-04-08T07:38:58;97996.19;;;5.78;100.00
27202;BME280;14717;46.924;15.474;2023-04-08T07:41:23;98002.31;;;5.85;100.00
27202;BME280;14717;46.924;15.474;2023-04-08T07:43:48;98008.16;;;5.93;100.00
27202;BME280;14717;46.924;15.474;2023-04-08T07:46:14;98008.25;;;5.77;100.00
27202;BME280;14717;46.924;15.474;2023-04-08T07:48:39;98013.22;;;5.80;100.00
27202;BME280;14717;46.924;15.474;2023-04-08T07:51:08;98010.00;;;5.88;99.37
27202;BME280;14717;46.924;15.474;2023-04-08T07:53:34;98015.47;;;5.88;99.48
27202;BME280;14717;46.924;15.474;2023-04-08T07:56:00;98013.63;;;5.93;99.82
27202;BME280;14717;46.924;15.474;2023-04-08T07:58:28;98016.50;;;6.08;100.00
27202;BME280;14717;46.924;15.474;2023-04-08T08:00:53;98018.91;;;6.00;99.54
27202;BME280;14717;46.924;15.474;2023-04-08T08:03:19;98024.91;;;5.97;99.65
27202;BME280;14717;46.924;15.474;2023-04-08T08:05:44;98028.19;;;5.99;100.00
27202;BME280;14717;46.924;15.474;2023-04-08T08:08:09;98031.31;;;5.81;99.41
27202;BME280;14717;46.924;15.474;2023-04-08T08:10:38;98038.97;;;5.79;100.00
27202;BME280;14717;46.924;15.474;2023-04-08T08:13:05;98027.81;;;5.64;100.00
27202;BME280;14717;46.924;15.474;2023-04-08T08:15:30;98044.47;;;5.58;99.25
27202;BME280;14717;46.924;15.474;2023-04-08T08:17:56;98041.25;;;5.66;100.00
27202;BME280;14717;46.924;15.474;2023-04-08T08:20:21;98049.28;;;5.72;100.00
27202;BME280;14717;46.924;15.474;2023-04-08T08:22:47;98041.47;;;5.59;100.00
27202;BME280;14717;46.924;15.474;2023-04-08T08:25:12;98046.63;;;5.56;100.00
27202;BME280;14717;46.924;15.474;2023-04-08T08:27:37;98058.47;;;5.61;100.00
27202;BME280;14717;46.924;15.474;2023-04-08T08:30:05;98056.19;;;5.53;100.00
27202;BME280;14717;46.924;15.474;2023-04-08T08:32:31;98064.81;;;5.41;98.38
27202;BME280;14717;46.924;15.474;2023-04-08T08:34:56;98062.38;;;5.44;99.72
27202;BME280;14717;46.924;15.474;2023-04-08T08:37:22;98066.44;;;5.42;99.88
27202;BME280;14717;46.924;15.474;2023-04-08T08:39:47;98070.34;;;5.46;100.00
27202;BME280;14717;46.924;15.474;2023-04-08T08:42:24;98073.78;;;5.57;100.00
27202;BME280;14717;46.924;15.474;2023-04-08T08:44:49;98064.66;;;5.52;98.73
27202;BME280;14717;46.924;15.474;2023-04-08T08:47:15;98069.69;;;5.60;99.40
27202;BME280;14717;46.924;15.474;2023-04-08T08:49:41;98066.13;;;5.59;97.68
27202;BME280;14717;46.924;15.474;2023-04-08T08:52:07;98069.75;;;5.65;97.99
27202;BME280;14717;46.924;15.474;2023-04-08T08:54:32;98077.69;;;5.66;96.85
27202;BME280;14717;46.924;15.474;2023-04-08T08:56:58;98083.19;;;5.66;98.19
27202;BME280;14717;46.924;15.474;2023-04-08T08:59:23;98076.13;;;5.70;100.00
27202;BME280;14717;46.924;15.474;2023-04-08T09:01:49;98068.75;;;5.97;99.12
27202;BME280;14717;46.924;15.474;2023-04-08T09:04:16;98073.88;;;6.15;100.00
27202;BME280;14717;46.924;15.474;2023-04-08T09:06:49;98070.28;;;6.14;98.37
27202;BME280;14717;46.924;15.474;2023-04-08T09:09:15;98076.97;;;6.23;99.37
27202;BME280;14717;46.924;15.474;2023-04-08T09:11:43;98076.50;;;6.31;98.32
27202;BME280;14717;46.924;15.474;2023-04-08T09:14:23;98071.16;;;6.46;97.90
27202;BME280;14717;46.924;15.474;2023-04-08T09:16:49;98071.38;;;6.39;94.41
27202;BME280;14717;46.924;15.474;2023-04-08T09:19:15;98081.06;;;6.21;96.07
27202;BME280;14717;46.924;15.474;2023-04-08T09:21:41;98085.31;;;6.07;97.13
27202;BME280;14717;46.924;15.474;2023-04-08T09:24:07;98082.84;;;6.36;97.42
27202;BME280;14717;46.924;15.474;2023-04-08T09:26:33;98092.84;;;6.47;96.37
27202;BME280;14717;46.924;15.474;2023-04-08T09:29:04;98091.88;;;6.32;98.60
27202;BME280;14717;46.924;15.474;2023-04-08T09:31:32;98087.06;;;6.18;97.47
27202;BME280;14717;46.924;15.474;2023-04-08T09:34:00;98098.56;;;6.15;96.79
27202;BME280;14717;46.924;15.474;2023-04-08T09:36:29;98103.25;;;6.19;97.28
27202;BME280;14717;46.924;15.474;2023-04-08T09:38:54;98100.72;;;6.13;95.92
27202;BME280;14717;46.924;15.474;2023-04-08T09:41:21;98101.00;;;6.37;97.07
27202;BME280;14717;46.924;15.474;2023-04-08T09:43:55;98102.25;;;6.56;94.54
27202;BME280;14717;46.924;15.474;2023-04-08T09:55:04;98112.41;;;6.92;89.89
27202;BME280;14717;46.924;15.474;2023-04-08T09:57:39;98108.69;;;7.13;87.87
27202;BME280;14717;46.924;15.474;2023-04-08T10:00:12;98109.50;;;7.08;87.53
27202;BME280;14717;46.924;15.474;2023-04-08T10:02:48;98110.25;;;6.99;89.10
27202;BME280;14717;46.924;15.474;2023-04-08T10:05:16;98109.63;;;6.87;89.45
27202;BME280;14717;46.924;15.474;2023-04-08T10:07:42;98103.38;;;6.96;89.87
27202;BME280;14717;46.924;15.474;2023-04-08T10:10:08;98102.59;;;7.01;89.32
27202;BME280;14717;46.924;15.474;2023-04-08T10:12:37;98108.16;;;7.11;89.71
27202;BME280;14717;46.924;15.474;2023-04-08T10:15:23;98107.88;;;7.12;88.63
27202;BME280;14717;46.924;15.474;2023-04-08T10:17:55;98107.41;;;7.25;88.91
27202;BME280;14717;46.924;15.474;2023-04-08T10:23:09;98107.19;;;7.31;89.40
27202;BME280;14717;46.924;15.474;2023-04-08T10:25:42;98098.41;;;7.39;89.62
27202;BME280;14717;46.924;15.474;2023-04-08T10:30:43;98110.31;;;7.50;90.18
27202;BME280;14717;46.924;15.474;2023-04-08T10:33:23;98098.59;;;7.69;90.09
27202;BME280;14717;46.924;15.474;2023-04-08T10:35:59;98101.09;;;7.90;91.89
27202;BME280;14717;46.924;15.474;2023-04-08T10:38:27;98098.41;;;8.05;91.53
27202;BME280;14717;46.924;15.474;2023-04-08T10:40:53;98094.53;;;7.96;88.07
27202;BME280;14717;46.924;15.474;2023-04-08T10:43:18;98101.38;;;7.84;89.09
27202;BME280;14717;46.924;15.474;2023-04-08T10:45:45;98101.41;;;7.94;87.83
27202;BME280;14717;46.924;15.474;2023-04-08T10:53:29;98097.56;;;7.95;87.59
27202;BME280;14717;46.924;15.474;2023-04-08T10:56:11;98099.69;;;7.73;86.84
27202;BME280;14717;46.924;15.474;2023-04-08T10:58:51;98104.97;;;7.84;88.19
27202;BME280;14717;46.924;15.474;2023-04-08T11:01:17;98101.63;;;7.77;85.89
27202;BME280;14717;46.924;15.474;2023-04-08T11:03:43;98102.16;;;7.74;86.02
27202;BME280;14717;46.924;15.474;2023-04-08T11:06:10;98100.22;;;7.70;85.28
27202;BME280;14717;46.924;15.474;2023-04-08T11:08:36;98102.25;;;7.94;86.29
27202;BME280;14717;46.924;15.474;2023-04-08T11:11:03;98104.72;;;7.96;86.68
27202;BME280;14717;46.924;15.474;2023-04-08T11:13:34;98101.09;;;7.90;86.22
27202;BME280;14717;46.924;15.474;2023-04-08T11:16:00;98099.25;;;8.05;87.47
27202;BME280;14717;46.924;15.474;2023-04-08T11:18:26;98104.28;;;8.18;87.10
27202;BME280;14717;46.924;15.474;2023-04-08T11:20:52;98102.28;;;8.04;85.33
27202;BME280;14717;46.924;15.474;2023-04-08T11:23:18;98101.13;;;8.00;85.68
27202;BME280;14717;46.924;15.474;2023-04-08T11:25:44;98101.16;;;8.05;86.29
27202;BME280;14717;46.924;15.474;2023-04-08T11:28:11;98090.97;;;7.91;86.25
27202;BME280;14717;46.924;15.474;2023-04-08T11:30:38;98106.66;;;8.10;86.18
27202;BME280;14717;46.924;15.474;2023-04-08T11:33:05;98099.22;;;7.96;84.62
27202;BME280;14717;46.924;15.474;2023-04-08T11:35:31;98103.00;;;7.80;84.90
27202;BME280;14717;46.924;15.474;2023-04-08T11:37:56;98103.00;;;7.80;86.00
27202;BME280;14717;46.924;15.474;2023-04-08T11:40:22;98103.56;;;7.87;84.61
27202;BME280;14717;46.924;15.474;2023-04-08T11:42:49;98100.06;;;8.01;87.10
27202;BME280;14717;46.924;15.474;2023-04-08T11:45:16;98101.41;;;7.89;83.98
27202;BME280;14717;46.924;15.474;2023-04-08T11:47:42;98100.59;;;7.98;86.80
27202;BME280;14717;46.924;15.474;2023-04-08T11:50:09;98098.69;;;7.99;84.58
27202;BME280;14717;46.924;15.474;2023-04-08T11:52:48;98104.84;;;8.25;85.38
27202;BME280;14717;46.924;15.474;2023-04-08T11:55:31;98091.81;;;8.06;84.18
27202;BME280;14717;46.924;15.474;2023-04-08T11:58:01;98094.91;;;8.29;86.16
27202;BME280;14717;46.924;15.474;2023-04-08T12:00:27;98093.03;;;8.45;85.09
27202;BME280;14717;46.924;15.474;2023-04-08T12:02:53;98092.19;;;8.64;84.18
27202;BME280;14717;46.924;15.474;2023-04-08T12:05:18;98091.94;;;8.70;84.35
27202;BME280;14717;46.924;15.474;2023-04-08T12:07:44;98088.91;;;8.72;83.50
27202;BME280;14717;46.924;15.474;2023-04-08T12:10:10;98093.03;;;8.94;83.78
27202;BME280;14717;46.924;15.474;2023-04-08T12:12:36;98088.34;;;8.75;80.13
27202;BME280;14717;46.924;15.474;2023-04-08T12:15:02;98093.88;;;8.80;81.33
27202;BME280;14717;46.924;15.474;2023-04-08T12:17:27;98081.16;;;8.93;80.82
27202;BME280;14717;46.924;15.474;2023-04-08T12:19:53;98080.63;;;8.96;78.94
27202;BME280;14717;46.924;15.474;2023-04-08T12:22:18;98089.41;;;9.08;79.31
27202;BME280;14717;46.924;15.474;2023-04-08T12:24:43;98091.63;;;9.11;79.18
27202;BME280;14717;46.924;15.474;2023-04-08T12:27:09;98090.81;;;9.06;79.89
27202;BME280;14717;46.924;15.474;2023-04-08T12:29:34;98090.56;;;8.88;78.72
27202;BME280;14717;46.924;15.474;2023-04-08T12:32:00;98089.16;;;8.95;80.23
27202;BME280;14717;46.924;15.474;2023-04-08T12:34:26;98088.91;;;8.87;81.13
27202;BME280;14717;46.924;15.474;2023-04-08T12:36:51;98091.66;;;8.67;80.47
27202;BME280;14717;46.924;15.474;2023-04-08T12:39:17;98082.56;;;8.71;81.47
27202;BME280;14717;46.924;15.474;2023-04-08T12:41:42;98089.72;;;8.82;81.74
27202;BME280;14717;46.924;15.474;2023-04-08T12:44:07;98079.81;;;8.86;79.69
27202;BME280;14717;46.924;15.474;2023-04-08T12:46:33;98088.34;;;8.85;81.96
27202;BME280;14717;46.924;15.474;2023-04-08T12:48:58;98083.38;;;8.52;80.21
27202;BME280;14717;46.924;15.474;2023-04-08T12:51:24;98081.44;;;8.43;81.12
27202;BME280;14717;46.924;15.474;2023-04-08T12:53:50;98089.72;;;8.52;82.85
27202;BME280;14717;46.924;15.474;2023-04-08T12:56:16;98083.94;;;8.59;82.69
27202;BME280;14717;46.924;15.474;2023-04-08T12:58:41;98087.81;;;8.58;82.37
27202;BME280;14717;46.924;15.474;2023-04-08T13:01:06;98089.16;;;8.60;82.33
27202;BME280;14717;46.924;15.474;2023-04-08T13:03:32;98083.94;;;8.69;83.35
27202;BME280;14717;46.924;15.474;2023-04-08T13:05:59;98087.22;;;8.61;84.11
27202;BME280;14717;46.924;15.474;2023-04-08T13:08:24;98085.06;;;8.48;83.90
27202;BME280;14717;46.924;15.474;2023-04-08T13:10:50;98080.63;;;8.37;82.79
27202;BME280;14717;46.924;15.474;2023-04-08T13:13:15;98090.56;;;8.43;83.65
27202;BME280;14717;46.924;15.474;2023-04-08T13:15:41;98093.59;;;8.51;84.73
27202;BME280;14717;46.924;15.474;2023-04-08T13:18:07;98083.13;;;8.48;83.37